createdAt,value
2023-04-22T00:00:09.192Z,92.00
2023-04-22T00:03:23.632Z,94.02
2023-04-22T00:06:36.433Z,94.61
2023-04-22T00:09:49.568Z,93.70
2023-04-22T00:13:01.576Z,93.67
2023-04-22T00:16:15.043Z,93.95
2023-04-22T00:19:28.350Z,92.08
2023-04-22T00:22:41.015Z,92.40
2023-04-22T00:25:53.365Z,92.98
2023-04-22T00:29:05.784Z,95.63
2023-04-22T00:32:18.079Z,94.71
2023-04-22T00:35:30.181Z,94.49
2023-04-22T00:38:42.049Z,94.24
2023-04-22T00:41:54.398Z,93.96
2023-04-22T00:45:06.753Z,94.03
2023-04-22T00:48:20.124Z,96.67
2023-04-22T00:51:32.658Z,97.52
2023-04-22T00:54:45.086Z,99.16
2023-04-22T00:58:00.602Z,98.31
2023-04-22T01:01:13.305Z,98.41
2023-04-22T01:04:26.919Z,98.54
2023-04-22T01:07:40.554Z,99.97
2023-04-22T01:10:52.968Z,99.82
2023-04-22T01:14:05.293Z,100.00
2023-04-22T01:17:22.336Z,99.64
2023-04-22T01:20:36.118Z,98.48
2023-04-22T01:23:48.495Z,98.16
2023-04-22T01:27:02.296Z,97.83
2023-04-22T01:30:17.067Z,98.76
2023-04-22T01:33:29.882Z,98.20
2023-04-22T01:36:42.301Z,100.00
2023-04-22T01:39:55.148Z,99.01
2023-04-22T01:43:08.799Z,98.05
2023-04-22T01:46:23.537Z,97.86
2023-04-22T01:49:36.142Z,97.47
2023-04-22T01:52:48.666Z,97.38
2023-04-22T01:56:00.902Z,97.55
2023-04-22T01:59:13.420Z,98.54
2023-04-22T02:02:25.669Z,99.45
2023-04-22T02:05:38.197Z,100.00
2023-04-22T02:08:50.272Z,100.00
2023-04-22T02:12:02.309Z,100.00
2023-04-22T02:15:17.169Z,100.00
2023-04-22T02:18:29.676Z,100.00
2023-04-22T02:21:41.995Z,100.00
2023-04-22T02:24:56.164Z,100.00
2023-04-22T02:28:08.593Z,100.00
2023-04-22T02:31:22.101Z,100.00
2023-04-22T02:34:34.803Z,100.00
2023-04-22T02:37:47.049Z,100.00
2023-04-22T02:40:59.129Z,100.00
2023-04-22T02:44:11.691Z,100.00
2023-04-22T02:47:24.783Z,100.00
2023-04-22T02:50:37.188Z,100.00
2023-04-22T02:53:49.692Z,100.00
2023-04-22T02:57:03.122Z,100.00
2023-04-22T03:00:17.774Z,100.00
2023-04-22T03:03:32.250Z,100.00
2023-04-22T03:06:45.070Z,100.00
2023-04-22T03:09:57.077Z,100.00
2023-04-22T03:13:09.228Z,100.00
2023-04-22T03:16:22.572Z,100.00
2023-04-22T03:19:35.226Z,100.00
2023-04-22T03:22:47.750Z,100.00
2023-04-22T03:26:00.199Z,100.00
2023-04-22T03:29:15.462Z,100.00
2023-04-22T03:32:28.548Z,100.00
2023-04-22T03:35:42.770Z,100.00
2023-04-22T03:38:55.569Z,100.00
2023-04-22T03:42:09.080Z,100.00
2023-04-22T03:45:22.346Z,100.00
2023-04-22T03:48:37.574Z,100.00
2023-04-22T03:51:51.488Z,100.00
2023-04-22T03:55:05.378Z,100.00
2023-04-22T03:58:18.290Z,100.00
2023-04-22T04:01:31.432Z,100.00
2023-04-22T04:04:45.825Z,100.00
2023-04-22T04:08:00.049Z,100.00
2023-04-22T04:11:14.314Z,100.00
2023-04-22T04:14:26.403Z,100.00
2023-04-22T04:17:38.946Z,100.00
2023-04-22T04:20:51.844Z,100.00
2023-04-22T04:24:04.362Z,100.00
2023-04-22T04:27:17.743Z,100.00
2023-04-22T04:30:33.662Z,100.00
2023-04-22T04:33:47.828Z,100.00
2023-04-22T04:37:01.165Z,100.00
2023-04-22T04:40:16.994Z,100.00
2023-04-22T04:43:40.903Z,100.00
2023-04-22T04:46:55.077Z,100.00
2023-04-22T04:50:08.524Z,100.00
2023-04-22T04:53:21.233Z,100.00
2023-04-22T04:56:33.643Z,100.00
2023-04-22T04:59:45.858Z,100.00
2023-04-22T05:02:58.380Z,99.60
2023-04-22T05:06:13.124Z,97.43
2023-04-22T05:09:27.492Z,96.84
2023-04-22T05:12:39.808Z,97.03
2023-04-22T05:15:53.024Z,97.80
2023-04-22T05:19:05.438Z,96.61
2023-04-22T05:22:18.788Z,96.50
2023-04-22T05:25:32.965Z,96.95
2023-04-22T05:28:46.990Z,95.70
2023-04-22T05:31:59.501Z,95.27
2023-04-22T05:35:14.263Z,94.14
2023-04-22T05:38:26.623Z,92.00
2023-04-22T05:41:40.069Z,92.61
2023-04-22T05:44:54.151Z,90.96
2023-04-22T05:48:08.581Z,87.85
2023-04-22T05:51:23.812Z,87.36
2023-04-22T05:54:36.404Z,86.87
2023-04-22T05:57:48.862Z,84.70
2023-04-22T06:01:09.488Z,84.38
2023-04-22T06:04:29.967Z,82.52
2023-04-22T06:07:42.661Z,81.50
2023-04-22T06:10:54.952Z,82.15
2023-04-22T06:14:07.905Z,79.03
2023-04-22T06:17:20.490Z,76.07
2023-04-22T06:20:33.726Z,72.34
2023-04-22T06:23:46.540Z,71.24
2023-04-22T06:26:58.955Z,70.73
2023-04-22T06:30:16.107Z,66.47
2023-04-22T06:33:28.488Z,62.56
2023-04-22T06:36:41.408Z,61.74
2023-04-22T06:39:53.506Z,58.51
2023-04-22T06:43:10.113Z,58.10
2023-04-22T06:46:30.068Z,58.47
2023-04-22T06:49:47.295Z,57.68
2023-04-22T06:53:14.252Z,55.44
2023-04-22T06:56:26.856Z,54.07
2023-04-22T06:59:39.499Z,55.54
2023-04-22T07:02:52.092Z,51.54
2023-04-22T07:06:04.714Z,51.07
2023-04-22T07:09:17.463Z,52.13
2023-04-22T07:12:30.321Z,52.44
2023-04-22T07:15:42.733Z,52.14
2023-04-22T07:18:55.629Z,50.33
2023-04-22T07:22:07.910Z,49.16
2023-04-22T07:25:20.340Z,49.76
2023-04-22T07:28:32.553Z,47.50
2023-04-22T07:31:44.775Z,46.58
2023-04-22T07:34:57.274Z,46.87
2023-04-22T07:38:09.851Z,46.96
2023-04-22T07:41:22.813Z,43.67
2023-04-22T07:44:36.121Z,44.09
2023-04-22T07:47:49.326Z,44.98
2023-04-22T07:51:01.384Z,44.08
2023-04-22T07:54:13.792Z,44.24
2023-04-22T07:57:26.062Z,43.88
2023-04-22T08:00:39.303Z,40.07
2023-04-22T08:03:51.777Z,40.63
2023-04-22T08:07:17.077Z,43.08
2023-04-22T08:10:18.998Z,40.59
2023-04-22T08:13:31.228Z,40.17
2023-04-22T08:16:44.108Z,38.94
2023-04-22T08:19:56.199Z,39.31
2023-04-22T08:23:08.374Z,38.73
2023-04-22T08:26:20.673Z,38.38
2023-04-22T08:29:33.501Z,36.34
2023-04-22T08:32:46.007Z,37.37
2023-04-22T08:35:58.786Z,35.65
2023-04-22T08:39:11.605Z,36.38
2023-04-22T08:42:26.143Z,36.03
2023-04-22T08:45:39.370Z,32.61
2023-04-22T08:48:52.054Z,32.56
2023-04-22T08:52:04.279Z,31.83
2023-04-22T08:55:17.361Z,32.08
2023-04-22T08:58:30.319Z,33.15
2023-04-22T09:01:44.038Z,30.62
2023-04-22T09:04:59.134Z,30.16
2023-04-22T09:08:12.248Z,28.19
2023-04-22T09:11:24.757Z,28.63
2023-04-22T09:14:37.332Z,29.69
2023-04-22T09:17:49.756Z,29.86
2023-04-22T09:21:03.896Z,30.15
2023-04-22T09:24:17.392Z,29.39
2023-04-22T09:27:31.881Z,29.49
2023-04-22T09:30:44.272Z,28.43
2023-04-22T09:34:00.985Z,29.44
2023-04-22T09:37:13.306Z,30.41
2023-04-22T09:40:26.516Z,29.98
2023-04-22T09:43:41.264Z,28.82
2023-04-22T09:46:56.304Z,30.81
2023-04-22T09:50:15.731Z,28.80
2023-04-22T09:53:30.186Z,29.89
2023-04-22T09:56:54.805Z,30.75
2023-04-22T10:00:10.832Z,30.36
2023-04-22T10:03:23.701Z,29.47
2023-04-22T10:06:36.625Z,30.47
2023-04-22T10:09:48.903Z,30.08
2023-04-22T10:13:01.587Z,28.81
2023-04-22T10:16:14.755Z,32.61
2023-04-22T10:19:29.663Z,31.79
2023-04-22T10:22:42.493Z,29.96
2023-04-22T10:25:57.803Z,32.32
2023-04-22T10:29:14.025Z,31.97
2023-04-22T10:32:35.663Z,31.99
2023-04-22T10:36:03.662Z,31.09
2023-04-22T10:39:27.028Z,30.20
2023-04-22T10:42:39.564Z,30.92
2023-04-22T10:45:51.771Z,32.81
2023-04-22T10:49:06.663Z,32.31
2023-04-22T10:52:33.498Z,33.46
2023-04-22T10:56:01.181Z,33.37
2023-04-22T10:59:25.131Z,31.79
2023-04-22T11:02:39.916Z,32.96
2023-04-22T11:05:52.820Z,33.08
2023-04-22T11:09:17.740Z,31.83
2023-04-22T11:12:59.173Z,33.70
2023-04-22T11:16:14.036Z,31.44
2023-04-22T11:19:26.475Z,34.21
2023-04-22T11:22:43.385Z,33.92
2023-04-22T11:26:00.925Z,31.91
2023-04-22T11:29:14.377Z,33.70
2023-04-22T11:32:28.737Z,34.59
2023-04-22T11:35:43.043Z,30.32
2023-04-22T11:39:03.417Z,29.33
2023-04-22T11:42:16.632Z,31.33
2023-04-22T11:45:29.628Z,33.04
2023-04-22T11:48:41.656Z,31.45
2023-04-22T11:52:05.105Z,30.17
2023-04-22T11:55:21.020Z,30.89
2023-04-22T11:58:33.972Z,31.18
2023-04-22T12:01:49.433Z,31.10
2023-04-22T12:05:04.204Z,30.27
2023-04-22T12:08:18.870Z,32.77
2023-04-22T12:11:32.335Z,33.07
2023-04-22T12:14:44.783Z,31.58
2023-04-22T12:17:59.213Z,31.94
2023-04-22T12:21:16.893Z,32.18
2023-04-22T12:24:35.349Z,31.40
2023-04-22T12:27:47.748Z,32.14
2023-04-22T12:30:59.992Z,31.88
2023-04-22T12:34:12.142Z,33.37
2023-04-22T12:37:24.769Z,31.08
2023-04-22T12:40:37.107Z,33.52
2023-04-22T12:43:49.391Z,32.67
2023-04-22T12:47:01.530Z,32.63
2023-04-22T12:50:15.336Z,30.15
2023-04-22T12:53:28.905Z,30.29
2023-04-22T12:56:40.982Z,31.47
2023-04-22T12:59:53.709Z,31.79
2023-04-22T13:03:05.837Z,31.89
2023-04-22T13:06:17.992Z,30.72
2023-04-22T13:09:31.776Z,31.33
2023-04-22T13:12:44.046Z,31.76
2023-04-22T13:15:57.285Z,30.95
2023-04-22T13:19:09.698Z,31.46
2023-04-22T13:22:21.834Z,30.50
2023-04-22T13:25:34.117Z,30.39
2023-04-22T13:28:46.531Z,31.11
2023-04-22T13:31:58.697Z,31.55
2023-04-22T13:35:12.951Z,30.67
2023-04-22T13:38:25.052Z,32.36
2023-04-22T13:41:37.401Z,33.45
2023-04-22T13:44:49.527Z,29.49
2023-04-22T13:48:01.956Z,30.70
2023-04-22T13:51:14.800Z,31.04
2023-04-22T13:54:27.556Z,30.80
2023-04-22T13:57:39.519Z,30.81
2023-04-22T14:00:51.812Z,32.77
2023-04-22T14:04:04.164Z,30.41
2023-04-22T14:07:16.592Z,32.07
2023-04-22T14:10:29.205Z,30.45
2023-04-22T14:13:42.167Z,32.08
2023-04-22T14:16:54.512Z,34.70
2023-04-22T14:20:07.666Z,31.47
2023-04-22T14:23:19.891Z,32.72
2023-04-22T14:26:32.937Z,31.61
2023-04-22T14:29:46.034Z,33.65
2023-04-22T14:32:58.345Z,32.24
2023-04-22T14:36:11.675Z,35.12
2023-04-22T14:39:24.305Z,32.42
2023-04-22T14:42:36.725Z,31.04
2023-04-22T14:45:49.666Z,32.47
2023-04-22T14:49:01.850Z,33.27
2023-04-22T14:52:14.753Z,36.11
2023-04-22T14:55:29.386Z,36.28
2023-04-22T14:58:41.253Z,33.22
2023-04-22T15:01:53.803Z,34.75
2023-04-22T15:05:06.027Z,34.32
2023-04-22T15:08:19.366Z,34.07
2023-04-22T15:11:31.369Z,35.31
2023-04-22T15:14:44.294Z,35.13
2023-04-22T15:17:56.622Z,35.64
2023-04-22T15:21:10.889Z,32.60
2023-04-22T15:24:25.111Z,35.93
2023-04-22T15:27:37.635Z,35.67
2023-04-22T15:30:50.447Z,34.82
2023-04-22T15:34:02.686Z,37.82
2023-04-22T15:37:15.808Z,36.55
2023-04-22T15:40:28.609Z,36.18
2023-04-22T15:43:40.918Z,37.21
2023-04-22T15:46:53.948Z,39.39
2023-04-22T15:50:09.106Z,37.65
2023-04-22T15:53:21.934Z,39.88
2023-04-22T15:56:37.725Z,36.36
2023-04-22T15:59:56.308Z,38.60
2023-04-22T16:03:04.737Z,38.61
2023-04-22T16:06:17.485Z,39.75
2023-04-22T16:09:29.535Z,37.72
2023-04-22T16:12:41.733Z,39.73
2023-04-22T16:15:54.279Z,39.92
2023-04-22T16:19:06.772Z,39.55
2023-04-22T16:22:19.094Z,43.02
2023-04-22T16:25:32.114Z,40.06
2023-04-22T16:28:44.536Z,39.93
2023-04-22T16:31:57.886Z,40.68
2023-04-22T16:35:11.624Z,40.23
2023-04-22T16:38:23.842Z,40.69
2023-04-22T16:41:36.210Z,40.33
2023-04-22T16:44:48.508Z,39.89
2023-04-22T16:48:01.227Z,41.38
2023-04-22T16:51:13.902Z,42.53
2023-04-22T16:54:26.433Z,42.04
2023-04-22T16:57:38.902Z,43.08
2023-04-22T17:00:51.416Z,44.31
2023-04-22T17:04:04.112Z,42.26
2023-04-22T17:07:16.518Z,43.93
2023-04-22T17:10:29.169Z,44.94
2023-04-22T17:13:41.444Z,43.58
2023-04-22T17:16:53.630Z,45.55
2023-04-22T17:20:06.674Z,44.12
2023-04-22T17:23:20.083Z,43.88
2023-04-22T17:26:32.215Z,45.62
2023-04-22T17:29:44.452Z,44.67
2023-04-22T17:32:56.695Z,46.64
2023-04-22T17:36:09.355Z,45.47
2023-04-22T17:39:24.549Z,45.49
2023-04-22T17:42:45.661Z,45.83
2023-04-22T17:45:53.026Z,46.02
2023-04-22T17:49:06.025Z,47.59
2023-04-22T17:52:18.477Z,47.28
2023-04-22T17:55:32.819Z,50.09
2023-04-22T17:58:45.135Z,51.46
2023-04-22T18:01:58.977Z,52.72
2023-04-22T18:05:13.926Z,53.48
2023-04-22T18:08:26.130Z,52.67
2023-04-22T18:11:38.971Z,53.60
2023-04-22T18:14:52.310Z,54.53
2023-04-22T18:18:04.543Z,55.82
2023-04-22T18:21:16.810Z,55.48
2023-04-22T18:24:29.236Z,54.48
2023-04-22T18:27:41.697Z,54.11
2023-04-22T18:30:54.792Z,52.79
2023-04-22T18:34:08.416Z,55.17
2023-04-22T18:37:21.344Z,52.90
2023-04-22T18:40:34.273Z,55.22
2023-04-22T18:43:48.008Z,56.18
2023-04-22T18:47:00.615Z,53.68
2023-04-22T18:50:15.266Z,54.83
2023-04-22T18:53:27.606Z,56.78
2023-04-22T18:56:40.091Z,54.65
2023-04-22T18:59:52.641Z,53.96
2023-04-22T19:03:05.765Z,56.73
2023-04-22T19:06:18.296Z,59.76
2023-04-22T19:09:31.824Z,57.05
2023-04-22T19:12:44.866Z,58.33
2023-04-22T19:15:57.431Z,59.68
2023-04-22T19:19:10.162Z,59.50
2023-04-22T19:22:22.486Z,56.63
2023-04-22T19:25:34.884Z,61.81
2023-04-22T19:28:48.896Z,60.46
2023-04-22T19:32:02.122Z,60.55
2023-04-22T19:35:16.736Z,59.64
2023-04-22T19:38:29.163Z,57.97
2023-04-22T19:41:42.486Z,62.18
2023-04-22T19:44:55.199Z,62.59
2023-04-22T19:48:09.618Z,58.60
2023-04-22T19:51:22.618Z,59.24
2023-04-22T19:54:38.362Z,58.06
2023-04-22T19:57:51.496Z,58.33
2023-04-22T20:01:05.145Z,57.97
2023-04-22T20:04:19.645Z,56.82
2023-04-22T20:07:33.111Z,56.89
2023-04-22T20:10:48.265Z,57.19
2023-04-22T20:14:01.965Z,59.12
2023-04-22T20:17:16.208Z,61.72
2023-04-22T20:20:29.655Z,64.79
2023-04-22T20:23:42.420Z,66.29
2023-04-22T20:26:56.584Z,66.55
2023-04-22T20:30:13.158Z,65.56
2023-04-22T20:33:26.133Z,66.67
2023-04-22T20:36:39.292Z,67.15
2023-04-22T20:39:53.477Z,71.54
2023-04-22T20:43:06.114Z,73.07
2023-04-22T20:46:19.727Z,71.94
2023-04-22T20:49:33.394Z,73.40
2023-04-22T20:52:46.046Z,72.73
2023-04-22T20:55:58.258Z,71.48
2023-04-22T20:59:10.803Z,71.93
2023-04-22T21:02:24.990Z,74.54
2023-04-22T21:05:41.200Z,73.53
2023-04-22T21:08:54.982Z,73.34
2023-04-22T21:12:10.698Z,72.44
2023-04-22T21:15:25.993Z,72.13
2023-04-22T21:18:42.128Z,73.96
2023-04-22T21:21:56.160Z,72.19
2023-04-22T21:25:10.028Z,72.49
2023-04-22T21:28:24.298Z,74.62
2023-04-22T21:31:38.065Z,76.45
2023-04-22T21:34:50.345Z,74.68
2023-04-22T21:38:02.535Z,74.17
2023-04-22T21:41:15.453Z,74.13
2023-04-22T21:44:27.618Z,73.74
2023-04-22T21:47:39.902Z,72.84
2023-04-22T21:50:52.584Z,75.54
2023-04-22T21:54:04.999Z,76.34
2023-04-22T21:57:17.310Z,76.14
2023-04-22T22:00:29.509Z,76.54
2023-04-22T22:03:42.118Z,77.38
2023-04-22T22:06:54.582Z,77.00
2023-04-22T22:10:06.604Z,76.92
2023-04-22T22:13:19.065Z,78.04
2023-04-22T22:16:31.458Z,77.63
2023-04-22T22:19:43.648Z,77.55
2023-04-22T22:22:55.876Z,78.09
2023-04-22T22:26:08.520Z,80.70
2023-04-22T22:29:21.010Z,79.30
2023-04-22T22:32:33.129Z,79.28
2023-04-22T22:35:45.633Z,79.06
2023-04-22T22:38:58.753Z,78.69
2023-04-22T22:42:11.128Z,78.29
2023-04-22T22:45:23.475Z,79.39
2023-04-22T22:48:36.189Z,78.73
2023-04-22T22:51:48.652Z,78.95
2023-04-22T22:55:01.022Z,79.71
2023-04-22T22:58:12.978Z,79.99
2023-04-22T23:01:25.164Z,79.85
2023-04-22T23:04:39.592Z,79.65
2023-04-22T23:07:51.725Z,81.92
2023-04-22T23:11:03.787Z,81.08
2023-04-22T23:14:16.581Z,82.09
2023-04-22T23:17:28.634Z,80.78
2023-04-22T23:20:41.446Z,83.91
2023-04-22T23:23:54.675Z,84.87
2023-04-22T23:27:10.182Z,83.74
2023-04-22T23:30:25.071Z,83.95
2023-04-22T23:33:40.328Z,84.40
2023-04-22T23:36:53.424Z,84.12
2023-04-22T23:40:07.024Z,85.27
2023-04-22T23:43:19.375Z,86.26
2023-04-22T23:46:31.756Z,84.10
2023-04-22T23:49:44.032Z,85.89
2023-04-22T23:52:57.625Z,85.76
2023-04-22T23:56:12.207Z,85.03
2023-04-22T23:59:26.296Z,86.04
